createdAt,value
2018-10-05T00:01:57.691Z,7.45
2018-10-05T00:04:26.332Z,7.30
2018-10-05T00:06:54.912Z,6.99
2018-10-05T00:09:23.444Z,7.08
2018-10-05T00:11:52.069Z,7.08
2018-10-05T00:14:20.640Z,7.11
2018-10-05T00:16:49.281Z,7.26
2018-10-05T00:19:17.828Z,7.20
2018-10-05T00:21:46.409Z,6.90
2018-10-05T00:24:14.961Z,6.85
2018-10-05T00:26:43.576Z,7.02
2018-10-05T00:29:12.205Z,6.87
2018-10-05T00:31:41.295Z,7.07
2018-10-05T00:34:09.843Z,7.09
2018-10-05T00:36:38.400Z,7.09
2018-10-05T00:39:08.853Z,7.05
2018-10-05T00:41:37.448Z,7.04
2018-10-05T00:44:06.091Z,7.09
2018-10-05T00:46:34.654Z,7.00
2018-10-05T00:49:03.241Z,6.95
2018-10-05T00:51:31.801Z,7.12
2018-10-05T00:54:00.380Z,6.58
2018-10-05T00:56:28.917Z,6.45
2018-10-05T00:58:57.546Z,6.48
2018-10-05T01:01:26.101Z,6.62
2018-10-05T01:03:54.681Z,6.65
2018-10-05T01:06:23.227Z,6.73
2018-10-05T01:08:51.878Z,6.38
2018-10-05T01:11:20.479Z,6.60
2018-10-05T01:13:49.021Z,6.07
2018-10-05T01:16:17.570Z,5.94
2018-10-05T01:18:46.181Z,6.35
2018-10-05T01:21:14.733Z,6.55
2018-10-05T01:23:43.281Z,6.77
2018-10-05T01:26:11.798Z,6.64
2018-10-05T01:28:40.365Z,6.67
2018-10-05T01:31:08.922Z,6.70
2018-10-05T01:33:37.472Z,6.46
2018-10-05T01:36:06.008Z,6.29
2018-10-05T01:38:34.545Z,6.14
2018-10-05T01:41:03.069Z,6.30
2018-10-05T01:43:31.617Z,6.38
2018-10-05T01:46:00.130Z,6.49
2018-10-05T01:48:29.517Z,6.59
2018-10-05T01:50:58.037Z,6.60
2018-10-05T01:53:26.592Z,6.43
2018-10-05T01:55:55.105Z,5.95
2018-10-05T01:58:23.649Z,5.78
2018-10-05T02:00:52.160Z,6.16
2018-10-05T02:03:20.725Z,6.38
2018-10-05T02:05:49.233Z,6.54
2018-10-05T02:08:17.792Z,6.38
2018-10-05T02:10:46.300Z,6.01
2018-10-05T02:13:14.845Z,5.85
2018-10-05T02:15:43.369Z,6.03
2018-10-05T02:18:11.941Z,5.67
2018-10-05T02:20:40.459Z,5.50
2018-10-05T02:23:09.017Z,5.64
2018-10-05T02:25:37.532Z,5.39
2018-10-05T02:28:06.054Z,5.72
2018-10-05T02:30:34.631Z,5.97
2018-10-05T02:33:03.190Z,5.93
2018-10-05T02:35:31.701Z,5.70
2018-10-05T02:38:00.216Z,5.87
2018-10-05T02:40:28.806Z,6.04
2018-10-05T02:42:57.325Z,6.08
2018-10-05T02:45:25.873Z,6.02
2018-10-05T02:47:54.372Z,5.81
2018-10-05T02:50:22.929Z,5.34
2018-10-05T02:52:51.521Z,5.75
2018-10-05T02:55:20.124Z,5.69
2018-10-05T02:57:48.872Z,5.69
2018-10-05T03:00:28.548Z,5.92
2018-10-05T03:02:57.078Z,5.87
2018-10-05T03:05:25.623Z,5.86
2018-10-05T03:07:54.117Z,6.04
2018-10-05T03:10:22.684Z,6.08
2018-10-05T03:12:51.208Z,6.08
2018-10-05T03:15:19.794Z,6.12
2018-10-05T03:17:48.355Z,6.16
2018-10-05T03:20:16.920Z,6.08
2018-10-05T03:22:45.458Z,5.80
2018-10-05T03:25:14.033Z,5.72
2018-10-05T03:27:42.581Z,5.95
2018-10-05T03:30:11.141Z,5.99
2018-10-05T03:32:39.688Z,5.79
2018-10-05T03:35:08.276Z,5.79
2018-10-05T03:37:36.815Z,5.82
2018-10-05T03:40:05.493Z,5.92
2018-10-05T03:42:34.029Z,6.02
2018-10-05T03:45:02.592Z,5.82
2018-10-05T03:47:31.132Z,5.80
2018-10-05T03:49:59.695Z,5.51
2018-10-05T03:52:28.234Z,5.55
2018-10-05T03:54:56.808Z,5.78
2018-10-05T03:57:25.345Z,5.80
2018-10-05T03:59:54.149Z,5.79
2018-10-05T04:02:22.699Z,5.86
2018-10-05T04:04:51.272Z,5.75
2018-10-05T04:07:19.804Z,5.70
2018-10-05T04:09:48.364Z,5.32
2018-10-05T04:12:16.941Z,5.12
2018-10-05T04:14:45.492Z,5.37
2018-10-05T04:17:14.149Z,5.28
2018-10-05T04:19:42.660Z,5.58
2018-10-05T04:22:11.315Z,5.44
2018-10-05T04:24:39.840Z,5.28
2018-10-05T04:27:08.431Z,4.79
2018-10-05T04:29:36.944Z,4.79
2018-10-05T04:32:05.501Z,4.84
2018-10-05T04:34:34.042Z,4.87
2018-10-05T04:37:02.596Z,5.21
2018-10-05T04:39:31.124Z,5.34
2018-10-05T04:41:59.681Z,5.48
2018-10-05T04:44:28.201Z,5.37
2018-10-05T04:46:56.772Z,5.26
2018-10-05T04:49:25.350Z,5.33
2018-10-05T04:51:53.881Z,5.35
2018-10-05T04:54:22.413Z,4.48
2018-10-05T04:56:51.072Z,4.60
2018-10-05T04:59:19.536Z,4.87
2018-10-05T05:01:49.675Z,5.01
2018-10-05T05:04:18.249Z,5.05
2018-10-05T05:06:46.807Z,5.21
2018-10-05T05:09:15.329Z,5.02
2018-10-05T05:11:43.868Z,5.12
2018-10-05T05:14:12.401Z,4.53
2018-10-05T05:16:40.958Z,4.54
2018-10-05T05:19:09.559Z,4.89
2018-10-05T05:21:38.192Z,5.03
2018-10-05T05:24:06.784Z,5.14
2018-10-05T05:26:35.389Z,4.61
2018-10-05T05:29:03.941Z,4.96
2018-10-05T05:31:32.528Z,4.83
2018-10-05T05:34:01.123Z,4.86
2018-10-05T05:36:29.708Z,5.09
2018-10-05T05:38:58.291Z,4.94
2018-10-05T05:41:26.861Z,4.86
2018-10-05T05:43:55.401Z,4.73
2018-10-05T05:46:24.103Z,4.55
2018-10-05T05:48:52.683Z,4.54
2018-10-05T05:51:21.620Z,4.36
2018-10-05T05:53:50.248Z,4.39
2018-10-05T05:56:18.993Z,4.54
2018-10-05T05:58:47.547Z,4.52
2018-10-05T06:01:16.296Z,4.91
2018-10-05T06:03:44.733Z,4.95
2018-10-05T06:06:19.812Z,5.02
2018-10-05T06:08:52.040Z,5.05
2018-10-05T06:11:20.969Z,5.03
2018-10-05T06:13:49.715Z,4.85
2018-10-05T06:16:18.490Z,4.87
2018-10-05T06:18:47.100Z,5.04
2018-10-05T06:21:15.649Z,4.89
2018-10-05T06:23:44.284Z,5.10
2018-10-05T06:26:14.124Z,4.89
2018-10-05T06:28:42.652Z,4.87
2018-10-05T06:31:11.510Z,5.05
2018-10-05T06:33:40.089Z,5.11
2018-10-05T06:36:08.964Z,5.29
2018-10-05T06:38:37.517Z,5.32
2018-10-05T06:41:06.129Z,5.46
2018-10-05T06:43:35.066Z,5.64
2018-10-05T06:46:03.661Z,5.77
2018-10-05T06:48:32.253Z,5.87
2018-10-05T06:51:00.868Z,5.87
2018-10-05T06:53:29.592Z,6.05
2018-10-05T06:55:59.520Z,6.23
2018-10-05T06:58:28.653Z,6.33
2018-10-05T07:00:58.472Z,6.41
2018-10-05T07:03:27.185Z,6.57
2018-10-05T07:06:02.131Z,6.69
2018-10-05T07:08:37.679Z,6.79
2018-10-05T07:11:08.216Z,6.85
2018-10-05T07:13:43.588Z,6.90
2018-10-05T07:16:20.176Z,6.99
2018-10-05T07:18:56.468Z,7.11
2018-10-05T07:21:32.397Z,7.25
2018-10-05T07:24:10.193Z,7.38
2018-10-05T07:26:44.590Z,7.50
2018-10-05T07:29:20.576Z,7.66
2018-10-05T07:31:56.212Z,7.74
2018-10-05T07:34:33.437Z,7.87
2018-10-05T07:37:11.490Z,8.07
2018-10-05T07:39:40.221Z,8.31
2018-10-05T07:42:08.809Z,8.37
2018-10-05T07:44:37.344Z,8.47
2018-10-05T07:47:05.961Z,8.62
2018-10-05T07:49:34.484Z,8.82
2018-10-05T07:52:03.049Z,8.91
2018-10-05T07:54:36.641Z,9.16
2018-10-05T07:57:10.488Z,9.38
2018-10-05T07:59:39.784Z,9.55
2018-10-05T08:02:10.648Z,9.60
2018-10-05T08:04:41.748Z,9.73
2018-10-05T08:07:12.101Z,9.84
2018-10-05T08:09:46.281Z,10.04
2018-10-05T08:12:21.643Z,10.18
2018-10-05T08:14:53.569Z,10.33
2018-10-05T08:17:23.176Z,10.47
2018-10-05T08:19:52.183Z,10.60
2018-10-05T08:22:27.349Z,10.63
2018-10-05T08:25:00.298Z,10.66
2018-10-05T08:27:29.736Z,10.75
2018-10-05T08:29:59.064Z,10.95
2018-10-05T08:32:27.628Z,11.05
2018-10-05T08:35:03.277Z,11.23
2018-10-05T08:37:36.053Z,11.44
2018-10-05T08:40:05.783Z,11.50
2018-10-05T08:42:37.476Z,11.59
2018-10-05T08:45:06.060Z,11.88
2018-10-05T08:47:34.787Z,11.88
2018-10-05T08:50:03.399Z,11.95
2018-10-05T08:52:36.930Z,12.07
2018-10-05T08:55:06.787Z,12.22
2018-10-05T08:57:35.762Z,12.23
2018-10-05T09:00:08.710Z,12.29
2018-10-05T09:02:40.921Z,12.49
2018-10-05T09:05:12.637Z,12.49
2018-10-05T09:07:46.008Z,12.61
2018-10-05T09:10:14.814Z,12.55
2018-10-05T09:12:43.771Z,12.47
2018-10-05T09:15:14.009Z,12.55
2018-10-05T09:17:44.728Z,12.66
2018-10-05T09:20:15.197Z,12.63
2018-10-05T09:22:48.851Z,12.99
2018-10-05T09:25:17.824Z,13.05
2018-10-05T09:27:46.376Z,13.21
2018-10-05T09:30:14.949Z,13.25
2018-10-05T09:32:43.468Z,13.17
2018-10-05T09:35:12.086Z,13.30
2018-10-05T09:37:41.165Z,13.38
2018-10-05T09:40:10.417Z,13.51
2018-10-05T09:42:39.097Z,13.52
2018-10-05T09:45:07.843Z,13.54
2018-10-05T09:47:36.358Z,13.52
2018-10-05T09:50:04.945Z,13.77
2018-10-05T09:52:33.546Z,13.84
2018-10-05T09:55:02.072Z,13.91
2018-10-05T09:57:30.772Z,14.16
2018-10-05T09:59:59.470Z,14.18
2018-10-05T10:03:32.799Z,14.11
2018-10-05T10:06:02.727Z,14.30
2018-10-05T10:08:31.366Z,14.18
2018-10-05T10:10:59.901Z,14.37
2018-10-05T10:13:29.739Z,14.45
2018-10-05T10:15:58.837Z,14.71
2018-10-05T10:18:31.392Z,14.76
2018-10-05T10:21:00.147Z,14.83
2018-10-05T10:23:29.042Z,14.85
2018-10-05T10:25:59.004Z,15.13
2018-10-05T10:28:29.073Z,15.12
2018-10-05T10:30:58.224Z,15.00
2018-10-05T10:33:26.762Z,15.28
2018-10-05T10:36:01.713Z,15.44
2018-10-05T10:38:33.257Z,15.78
2018-10-05T10:41:05.990Z,15.75
2018-10-05T10:43:36.328Z,15.69
2018-10-05T10:46:08.675Z,15.69
2018-10-05T10:48:39.652Z,15.75
2018-10-05T10:51:08.209Z,15.98
2018-10-05T10:53:36.735Z,16.50
2018-10-05T10:56:10.603Z,16.86
2018-10-05T10:58:40.112Z,16.44
2018-10-05T11:01:13.543Z,16.70
2018-10-05T11:03:47.679Z,16.47
2018-10-05T11:06:19.996Z,16.61
2018-10-05T11:08:48.752Z,16.66
2018-10-05T11:11:17.313Z,17.12
2018-10-05T11:13:45.852Z,17.03
2018-10-05T11:16:14.434Z,17.15
2018-10-05T11:18:43.064Z,17.18
2018-10-05T11:21:15.169Z,17.24
2018-10-05T11:23:49.325Z,17.36
2018-10-05T11:26:18.156Z,17.54
2018-10-05T11:28:46.720Z,17.40
2018-10-05T11:31:15.294Z,17.59
2018-10-05T11:33:43.853Z,17.62
2018-10-05T11:36:12.412Z,17.81
2018-10-05T11:38:41.512Z,17.80
2018-10-05T11:41:10.411Z,17.96
2018-10-05T11:43:38.961Z,17.94
2018-10-05T11:46:08.206Z,17.89
2018-10-05T11:48:37.139Z,18.12
2018-10-05T11:51:07.220Z,18.23
2018-10-05T11:53:35.805Z,18.10
2018-10-05T11:56:04.623Z,18.13
2018-10-05T11:58:33.168Z,18.75
2018-10-05T12:01:02.104Z,18.54
2018-10-05T12:03:30.654Z,18.75
2018-10-05T12:05:59.188Z,18.66
2018-10-05T12:08:27.751Z,18.81
2018-10-05T12:10:56.352Z,18.74
2018-10-05T12:13:24.946Z,19.00
2018-10-05T12:15:53.489Z,19.07
2018-10-05T12:18:22.101Z,18.98
2018-10-05T12:20:51.910Z,18.94
2018-10-05T12:23:29.492Z,19.02
2018-10-05T12:26:01.219Z,19.32
2018-10-05T12:28:33.531Z,19.31
2018-10-05T12:31:03.676Z,19.30
2018-10-05T12:33:34.796Z,19.50
2018-10-05T12:36:06.426Z,19.43
2018-10-05T12:38:35.094Z,19.65
2018-10-05T12:41:03.644Z,19.90
2018-10-05T12:43:32.221Z,20.06
2018-10-05T12:46:02.984Z,20.09
2018-10-05T12:48:31.561Z,20.01
2018-10-05T12:51:01.610Z,20.03
2018-10-05T12:53:34.121Z,20.03
2018-10-05T12:56:02.848Z,20.00
2018-10-05T12:58:31.411Z,20.24
2018-10-05T13:01:00.009Z,20.20
2018-10-05T13:03:28.710Z,20.33
2018-10-05T13:05:57.260Z,20.48
2018-10-05T13:08:25.874Z,20.56
2018-10-05T13:10:54.416Z,20.58
2018-10-05T13:13:23.058Z,20.56
2018-10-05T13:15:51.612Z,20.59
2018-10-05T13:18:20.212Z,20.48
2018-10-05T13:20:48.749Z,20.49
2018-10-05T13:23:17.323Z,20.72
2018-10-05T13:25:45.900Z,20.86
2018-10-05T13:28:14.460Z,20.78
2018-10-05T13:30:42.988Z,20.88
2018-10-05T13:33:11.540Z,20.85
2018-10-05T13:35:40.060Z,21.01
2018-10-05T13:38:08.628Z,21.13
2018-10-05T13:40:37.194Z,21.19
2018-10-05T13:43:05.782Z,21.08
2018-10-05T13:45:34.301Z,21.34
2018-10-05T13:48:02.886Z,21.44
2018-10-05T13:50:31.424Z,21.39
2018-10-05T13:53:00.025Z,21.34
2018-10-05T13:55:28.561Z,21.54
2018-10-05T13:58:02.324Z,21.46
2018-10-05T14:00:35.397Z,21.55
2018-10-05T14:03:07.367Z,21.70
2018-10-05T14:05:40.698Z,21.50
2018-10-05T14:08:10.934Z,21.55
2018-10-05T14:10:41.950Z,21.68
2018-10-05T14:13:12.953Z,21.93
2018-10-05T14:15:43.114Z,21.86
2018-10-05T14:18:12.677Z,21.98
2018-10-05T14:20:45.553Z,21.95
2018-10-05T14:23:19.483Z,22.21
2018-10-05T14:25:53.189Z,22.12
2018-10-05T14:28:25.513Z,22.12
2018-10-05T14:30:58.789Z,22.15
2018-10-05T14:33:30.465Z,22.33
2018-10-05T14:36:06.345Z,22.59
2018-10-05T14:38:38.429Z,22.21
2018-10-05T14:41:06.998Z,22.33
2018-10-05T14:43:41.489Z,22.53
2018-10-05T14:46:13.616Z,22.83
2018-10-05T14:48:47.217Z,22.73
2018-10-05T14:51:18.544Z,23.23
2018-10-05T14:53:50.815Z,23.52
2018-10-05T14:56:20.907Z,23.47
2018-10-05T14:58:52.086Z,23.34
2018-10-05T15:01:22.908Z,23.73
2018-10-05T15:03:51.683Z,23.76
2018-10-05T15:06:22.947Z,24.06
2018-10-05T15:09:00.629Z,24.23
2018-10-05T15:11:31.413Z,24.03
2018-10-05T15:14:04.000Z,24.31
2018-10-05T15:16:36.447Z,24.28
2018-10-05T15:19:08.760Z,24.19
2018-10-05T15:21:37.952Z,24.48
2018-10-05T15:24:08.535Z,24.85
2018-10-05T15:26:37.260Z,24.66
2018-10-05T15:29:10.265Z,24.92
2018-10-05T15:31:40.837Z,25.09
2018-10-05T15:34:11.065Z,24.47
2018-10-05T15:36:44.206Z,24.31
2018-10-05T15:39:13.462Z,24.02
2018-10-05T15:41:45.278Z,24.38
2018-10-05T15:44:39.775Z,24.39
2018-10-05T15:47:12.955Z,23.75
2018-10-05T15:49:42.217Z,23.90
2018-10-05T15:52:14.970Z,24.07
2018-10-05T15:54:46.782Z,23.88
2018-10-05T15:57:19.789Z,23.79
2018-10-05T15:59:51.318Z,23.64
2018-10-05T16:02:23.220Z,23.41
2018-10-05T16:04:56.107Z,23.56
2018-10-05T16:07:27.849Z,23.30
2018-10-05T16:10:02.986Z,23.07
2018-10-05T16:12:31.779Z,22.87
2018-10-05T16:15:00.252Z,22.76
2018-10-05T16:17:28.837Z,22.66
2018-10-05T16:19:57.404Z,22.67
2018-10-05T16:22:32.552Z,22.49
2018-10-05T16:25:08.923Z,22.13
2018-10-05T16:27:39.337Z,21.46
2018-10-05T16:30:11.386Z,21.56
2018-10-05T16:32:41.653Z,21.42
2018-10-05T16:35:11.961Z,21.45
2018-10-05T16:37:41.749Z,21.11
2018-10-05T16:40:13.464Z,20.82
2018-10-05T16:42:46.901Z,20.61
2018-10-05T16:45:20.670Z,20.18
2018-10-05T16:47:51.842Z,19.90
2018-10-05T16:50:23.338Z,19.45
2018-10-05T16:52:52.748Z,19.42
2018-10-05T16:55:30.626Z,19.13
2018-10-05T16:58:05.531Z,19.06
2018-10-05T17:00:37.219Z,18.82
2018-10-05T17:03:13.401Z,18.61
2018-10-05T17:05:49.184Z,18.27
2018-10-05T17:08:28.007Z,18.16
2018-10-05T17:10:58.301Z,17.72
2018-10-05T17:13:29.752Z,17.78
2018-10-05T17:16:02.015Z,17.84
2018-10-05T17:18:34.906Z,17.69
2018-10-05T17:21:03.592Z,17.26
2018-10-05T17:23:37.178Z,17.05
2018-10-05T17:26:11.205Z,17.18
2018-10-05T17:28:43.241Z,17.02
2018-10-05T17:31:16.061Z,17.01
2018-10-05T17:33:48.853Z,17.02
2018-10-05T17:36:19.657Z,16.67
2018-10-05T17:38:58.363Z,16.31
2018-10-05T17:41:41.973Z,16.56
2018-10-05T17:44:15.954Z,16.26
2018-10-05T17:46:46.253Z,16.21
2018-10-05T17:49:16.250Z,16.00
2018-10-05T17:51:51.971Z,15.91
2018-10-05T17:54:22.837Z,15.91
2018-10-05T17:56:52.772Z,15.71
2018-10-05T17:59:24.235Z,15.14
2018-10-05T18:02:03.038Z,15.15
2018-10-05T18:04:33.181Z,15.18
2018-10-05T18:07:04.779Z,14.59
2018-10-05T18:09:35.263Z,14.97
2018-10-05T18:12:10.403Z,15.02
2018-10-05T18:14:43.561Z,14.97
2018-10-05T18:17:16.639Z,14.83
2018-10-05T18:19:48.004Z,14.80
2018-10-05T18:22:16.704Z,14.65
2018-10-05T18:24:47.129Z,14.69
2018-10-05T18:27:18.257Z,14.70
2018-10-05T18:29:50.401Z,14.50
2018-10-05T18:32:22.806Z,14.57
2018-10-05T18:34:51.868Z,14.53
2018-10-05T18:37:21.853Z,14.28
2018-10-05T18:39:54.698Z,13.98
2018-10-05T18:42:24.205Z,13.89
2018-10-05T18:44:56.209Z,14.09
2018-10-05T18:47:30.214Z,13.95
2018-10-05T18:49:59.774Z,14.00
2018-10-05T18:52:29.044Z,13.89
2018-10-05T18:55:04.410Z,13.69
2018-10-05T18:57:36.154Z,13.75
2018-10-05T19:00:10.080Z,13.68
2018-10-05T19:02:44.252Z,13.62
2018-10-05T19:05:14.194Z,13.42
2018-10-05T19:07:46.337Z,13.45
2018-10-05T19:10:19.082Z,13.49
2018-10-05T19:12:49.762Z,13.40
2018-10-05T19:15:19.229Z,13.38
2018-10-05T19:17:50.793Z,13.34
2018-10-05T19:20:19.346Z,13.08
2018-10-05T19:22:47.896Z,13.04
2018-10-05T19:25:16.437Z,13.07
2018-10-05T19:27:45.036Z,12.70
2018-10-05T19:30:13.717Z,12.54
2018-10-05T19:32:42.266Z,12.89
2018-10-05T19:35:10.820Z,12.66
2018-10-05T19:37:39.429Z,12.63
2018-10-05T19:40:08.608Z,12.74
2018-10-05T19:42:37.181Z,12.78
2018-10-05T19:45:06.508Z,12.67
2018-10-05T19:47:35.084Z,12.70
2018-10-05T19:50:03.676Z,12.62
2018-10-05T19:52:32.192Z,12.62
2018-10-05T19:55:01.177Z,12.26
2018-10-05T19:57:31.844Z,12.45
2018-10-05T20:00:02.147Z,11.95
2018-10-05T20:02:30.688Z,11.94
2018-10-05T20:05:07.067Z,12.08
2018-10-05T20:07:35.944Z,11.76
2018-10-05T20:10:05.298Z,12.17
2018-10-05T20:12:33.777Z,11.74
2018-10-05T20:15:02.366Z,11.82
2018-10-05T20:17:31.450Z,12.06
2018-10-05T20:20:00.136Z,12.10
2018-10-05T20:22:28.672Z,12.00
2018-10-05T20:24:57.846Z,11.98
2018-10-05T20:27:33.177Z,12.07
2018-10-05T20:30:01.931Z,12.28
2018-10-05T20:32:30.723Z,12.25
2018-10-05T20:35:00.508Z,12.29
2018-10-05T20:37:29.169Z,12.25
2018-10-05T20:39:57.585Z,11.86
2018-10-05T20:42:26.097Z,11.91
2018-10-05T20:44:54.685Z,11.96
2018-10-05T20:47:23.220Z,11.95
2018-10-05T20:49:51.781Z,11.87
2018-10-05T20:52:20.346Z,11.62
2018-10-05T20:54:48.872Z,11.60
2018-10-05T20:57:17.425Z,11.52
2018-10-05T20:59:48.093Z,11.16
2018-10-05T21:02:21.306Z,11.39
2018-10-05T21:04:50.645Z,11.01
2018-10-05T21:07:19.221Z,11.25
2018-10-05T21:09:47.843Z,11.28
2018-10-05T21:12:16.308Z,11.36
2018-10-05T21:14:44.980Z,11.15
2018-10-05T21:17:14.436Z,11.22
2018-10-05T21:19:44.225Z,11.15
2018-10-05T21:22:12.986Z,10.96
2018-10-05T21:24:41.552Z,11.23
2018-10-05T21:27:10.145Z,11.13
2018-10-05T21:29:39.396Z,11.26
2018-10-05T21:32:08.010Z,11.15
2018-10-05T21:34:37.769Z,11.12
2018-10-05T21:37:06.524Z,11.05
2018-10-05T21:39:35.201Z,11.20
2018-10-05T21:42:04.485Z,11.30
2018-10-05T21:44:33.061Z,11.15
2018-10-05T21:47:01.608Z,11.27
2018-10-05T21:49:30.209Z,11.25
2018-10-05T21:51:58.749Z,11.16
2018-10-05T21:54:27.292Z,11.16
2018-10-05T21:56:56.188Z,11.18
2018-10-05T21:59:25.325Z,11.17
2018-10-05T22:01:54.576Z,11.11
2018-10-05T22:04:23.120Z,11.08
2018-10-05T22:06:52.448Z,11.20
2018-10-05T22:09:21.511Z,11.32
2018-10-05T22:11:50.224Z,11.36
2018-10-05T22:14:18.777Z,11.34
2018-10-05T22:16:47.359Z,11.20
2018-10-05T22:19:16.023Z,11.09
2018-10-05T22:21:44.628Z,11.19
2018-10-05T22:24:13.149Z,11.17
2018-10-05T22:26:42.177Z,11.26
2018-10-05T22:29:11.192Z,11.26
2018-10-05T22:31:39.760Z,11.38
2018-10-05T22:34:08.394Z,11.26
2018-10-05T22:36:37.232Z,11.33
2018-10-05T22:39:11.798Z,11.33
2018-10-05T22:41:40.480Z,11.29
2018-10-05T22:44:09.218Z,11.21
2018-10-05T22:46:37.829Z,11.15
2018-10-05T22:49:06.684Z,11.20
2018-10-05T22:51:35.277Z,11.24
2018-10-05T22:54:03.813Z,11.15
2018-10-05T22:56:33.788Z,10.99
2018-10-05T22:59:09.128Z,11.12
2018-10-05T23:01:38.341Z,11.00
2018-10-05T23:04:08.348Z,10.94
2018-10-05T23:06:38.309Z,10.86
2018-10-05T23:09:09.664Z,10.89
2018-10-05T23:11:39.425Z,10.76
2018-10-05T23:14:21.606Z,10.76
2018-10-05T23:17:13.009Z,10.39
2018-10-05T23:19:42.557Z,10.14
2018-10-05T23:22:11.120Z,10.08
2018-10-05T23:24:40.028Z,10.24
2018-10-05T23:27:09.065Z,10.02
2018-10-05T23:29:38.533Z,10.14
2018-10-05T23:32:07.433Z,10.21
2018-10-05T23:34:36.504Z,10.28
2018-10-05T23:37:05.984Z,10.29
2018-10-05T23:39:35.246Z,10.33
2018-10-05T23:42:05.037Z,10.03
2018-10-05T23:44:33.593Z,9.90
2018-10-05T23:47:02.209Z,10.08
2018-10-05T23:49:31.816Z,10.24
2018-10-05T23:52:11.337Z,10.22
2018-10-05T23:54:40.848Z,10.04
2018-10-05T23:57:10.053Z,10.18
2018-10-05T23:59:39.592Z,9.95
